createdAt,value
2023-05-14T00:00:58.354Z,17.21
2023-05-14T00:03:24.777Z,17.30
2023-05-14T00:05:51.185Z,17.21
2023-05-14T00:08:17.540Z,16.96
2023-05-14T00:10:43.978Z,16.93
2023-05-14T00:13:10.583Z,16.97
2023-05-14T00:15:37.035Z,16.86
2023-05-14T00:18:03.540Z,17.11
2023-05-14T00:20:30.452Z,16.86
2023-05-14T00:22:56.804Z,16.95
2023-05-14T00:25:23.248Z,17.01
2023-05-14T00:27:49.547Z,16.89
2023-05-14T00:30:15.877Z,16.88
2023-05-14T00:32:42.210Z,16.89
2023-05-14T00:35:09.051Z,16.97
2023-05-14T00:37:36.294Z,16.91
2023-05-14T00:40:03.600Z,16.97
2023-05-14T00:42:29.912Z,16.59
2023-05-14T00:44:56.233Z,16.84
2023-05-14T00:47:22.743Z,16.41
2023-05-14T00:49:49.171Z,15.99
2023-05-14T00:52:16.548Z,16.23
2023-05-14T00:54:43.087Z,16.44
2023-05-14T00:57:09.471Z,16.53
2023-05-14T00:59:35.947Z,16.18
2023-05-14T01:02:02.418Z,16.29
2023-05-14T01:04:29.350Z,16.32
2023-05-14T01:07:22.232Z,16.49
2023-05-14T01:09:54.994Z,16.43
2023-05-14T01:12:29.970Z,15.59
2023-05-14T01:15:12.558Z,16.38
2023-05-14T01:17:46.810Z,16.62
2023-05-14T01:20:13.502Z,15.71
2023-05-14T01:22:39.896Z,15.89
2023-05-14T01:25:06.937Z,16.64
2023-05-14T01:27:46.240Z,16.57
2023-05-14T01:30:27.384Z,16.36
2023-05-14T01:32:57.874Z,16.20
2023-05-14T01:35:28.506Z,16.00
2023-05-14T01:37:57.393Z,16.33
2023-05-14T01:40:25.357Z,16.15
2023-05-14T01:42:53.511Z,15.82
2023-05-14T01:45:21.367Z,15.79
2023-05-14T01:47:47.988Z,15.74
2023-05-14T01:50:14.473Z,15.74
2023-05-14T01:52:40.840Z,15.83
2023-05-14T01:55:07.790Z,15.65
2023-05-14T01:57:34.130Z,15.68
2023-05-14T02:00:00.669Z,15.93
2023-05-14T02:02:27.061Z,15.82
2023-05-14T02:04:53.417Z,15.73
2023-05-14T02:07:19.725Z,15.83
2023-05-14T02:09:46.057Z,15.76
2023-05-14T02:12:12.385Z,15.87
2023-05-14T02:14:38.795Z,15.38
2023-05-14T02:17:05.439Z,15.70
2023-05-14T02:19:31.855Z,15.65
2023-05-14T02:22:00.960Z,15.92
2023-05-14T02:24:27.454Z,15.85
2023-05-14T02:26:53.900Z,15.36
2023-05-14T02:29:20.392Z,15.39
2023-05-14T02:31:46.785Z,15.25
2023-05-14T02:34:13.176Z,14.95
2023-05-14T02:36:39.947Z,15.62
2023-05-14T02:39:06.567Z,15.33
2023-05-14T02:41:32.987Z,15.28
2023-05-14T02:43:59.334Z,15.20
2023-05-14T02:46:25.831Z,14.97
2023-05-14T02:48:52.240Z,14.87
2023-05-14T02:51:20.893Z,15.08
2023-05-14T02:53:47.228Z,15.09
2023-05-14T02:56:13.554Z,15.14
2023-05-14T02:58:39.912Z,15.65
2023-05-14T03:01:06.314Z,15.68
2023-05-14T03:03:33.778Z,15.42
2023-05-14T03:06:00.706Z,15.29
2023-05-14T03:08:27.034Z,15.47
2023-05-14T03:10:53.368Z,15.31
2023-05-14T03:13:20.503Z,15.17
2023-05-14T03:15:47.352Z,15.05
2023-05-14T03:18:14.968Z,15.12
2023-05-14T03:20:41.845Z,14.97
2023-05-14T03:23:08.234Z,14.86
2023-05-14T03:25:34.586Z,14.79
2023-05-14T03:28:00.926Z,14.81
2023-05-14T03:30:27.441Z,14.64
2023-05-14T03:32:53.966Z,14.58
2023-05-14T03:35:21.366Z,14.25
2023-05-14T03:37:47.744Z,14.19
2023-05-14T03:40:14.107Z,14.83
2023-05-14T03:42:40.477Z,14.45
2023-05-14T03:45:07.664Z,14.93
2023-05-14T03:47:34.008Z,14.99
2023-05-14T03:50:00.386Z,14.78
2023-05-14T03:52:27.091Z,15.03
2023-05-14T03:54:53.474Z,14.70
2023-05-14T03:57:19.779Z,14.39
2023-05-14T03:59:46.087Z,14.35
2023-05-14T04:02:12.465Z,14.84
2023-05-14T04:04:38.903Z,14.58
2023-05-14T04:07:05.389Z,14.88
2023-05-14T04:09:31.738Z,14.64
2023-05-14T04:11:58.112Z,14.91
2023-05-14T04:14:24.747Z,14.37
2023-05-14T04:16:51.079Z,14.36
2023-05-14T04:19:17.671Z,14.53
2023-05-14T04:21:44.283Z,14.71
2023-05-14T04:24:10.613Z,14.68
2023-05-14T04:26:36.950Z,14.70
2023-05-14T04:29:03.432Z,14.49
2023-05-14T04:31:30.316Z,14.72
2023-05-14T04:33:56.665Z,14.76
2023-05-14T04:36:23.003Z,14.97
2023-05-14T04:38:49.342Z,14.82
2023-05-14T04:41:15.694Z,14.75
2023-05-14T04:43:42.020Z,14.35
2023-05-14T04:46:09.307Z,14.69
2023-05-14T04:48:35.698Z,14.70
2023-05-14T04:51:02.040Z,14.89
2023-05-14T04:53:28.408Z,14.96
2023-05-14T04:55:55.068Z,14.59
2023-05-14T04:58:23.115Z,14.60
2023-05-14T05:00:50.068Z,14.53
2023-05-14T05:03:16.573Z,14.67
2023-05-14T05:05:43.040Z,14.96
2023-05-14T05:08:11.249Z,14.83
2023-05-14T05:10:37.591Z,15.06
2023-05-14T05:13:03.905Z,14.88
2023-05-14T05:15:30.324Z,14.39
2023-05-14T05:17:56.713Z,14.87
2023-05-14T05:20:23.420Z,14.85
2023-05-14T05:22:49.865Z,14.90
2023-05-14T05:25:16.281Z,14.60
2023-05-14T05:27:42.584Z,14.82
2023-05-14T05:30:09.322Z,15.13
2023-05-14T05:32:36.064Z,15.06
2023-05-14T05:35:03.225Z,15.18
2023-05-14T05:37:30.674Z,15.01
2023-05-14T05:39:57.027Z,15.38
2023-05-14T05:42:24.213Z,15.41
2023-05-14T05:44:50.534Z,15.46
2023-05-14T05:47:17.104Z,15.51
2023-05-14T05:49:43.490Z,15.63
2023-05-14T05:52:10.287Z,15.60
2023-05-14T05:54:36.662Z,15.51
2023-05-14T05:57:03.048Z,15.69
2023-05-14T05:59:29.383Z,15.63
2023-05-14T06:01:55.764Z,15.79
2023-05-14T06:04:22.182Z,15.96
2023-05-14T06:06:48.507Z,15.86
2023-05-14T06:09:14.885Z,16.05
2023-05-14T06:11:41.257Z,16.14
2023-05-14T06:14:07.562Z,16.16
2023-05-14T06:16:33.936Z,16.15
2023-05-14T06:19:00.380Z,16.07
2023-05-14T06:21:26.744Z,16.20
2023-05-14T06:23:53.167Z,16.10
2023-05-14T06:26:19.514Z,16.26
2023-05-14T06:28:45.817Z,16.10
2023-05-14T06:31:12.168Z,16.50
2023-05-14T06:33:39.078Z,16.28
2023-05-14T06:36:06.733Z,16.67
2023-05-14T06:38:33.174Z,16.64
2023-05-14T06:40:59.543Z,16.51
2023-05-14T06:43:25.914Z,16.83
2023-05-14T06:45:52.330Z,17.04
2023-05-14T06:48:19.397Z,17.00
2023-05-14T06:50:47.478Z,16.86
2023-05-14T06:53:14.479Z,17.20
2023-05-14T06:55:41.053Z,17.39
2023-05-14T06:58:07.987Z,17.46
2023-05-14T07:00:34.601Z,17.32
2023-05-14T07:03:00.989Z,17.48
2023-05-14T07:05:27.439Z,17.49
2023-05-14T07:07:53.762Z,17.51
2023-05-14T07:10:20.645Z,17.69
2023-05-14T07:12:47.062Z,17.23
2023-05-14T07:15:13.372Z,17.35
2023-05-14T07:17:39.794Z,17.98
2023-05-14T07:20:06.964Z,18.01
2023-05-14T07:22:33.294Z,17.76
2023-05-14T07:24:59.855Z,18.10
2023-05-14T07:27:26.239Z,17.75
2023-05-14T07:29:52.591Z,17.45
2023-05-14T07:32:18.926Z,17.31
2023-05-14T07:34:45.274Z,17.92
2023-05-14T07:37:11.785Z,18.54
2023-05-14T07:39:38.433Z,18.24
2023-05-14T07:42:05.136Z,18.61
2023-05-14T07:44:31.472Z,18.32
2023-05-14T07:46:57.951Z,18.55
2023-05-14T07:49:24.280Z,18.68
2023-05-14T07:51:50.714Z,18.86
2023-05-14T07:54:17.124Z,19.05
2023-05-14T07:56:43.456Z,19.15
2023-05-14T07:59:09.791Z,19.14
2023-05-14T08:01:38.588Z,19.24
2023-05-14T08:04:06.077Z,19.37
2023-05-14T08:06:32.482Z,19.38
2023-05-14T08:08:58.860Z,19.47
2023-05-14T08:11:25.980Z,19.45
2023-05-14T08:13:52.372Z,19.15
2023-05-14T08:16:18.792Z,19.14
2023-05-14T08:18:45.470Z,19.71
2023-05-14T08:21:11.872Z,19.50
2023-05-14T08:23:38.228Z,19.80
2023-05-14T08:26:04.710Z,19.78
2023-05-14T08:28:31.074Z,19.98
2023-05-14T08:30:57.494Z,20.10
2023-05-14T08:33:23.864Z,20.01
2023-05-14T08:35:52.768Z,20.52
2023-05-14T08:38:19.080Z,19.95
2023-05-14T08:40:55.068Z,20.78
2023-05-14T08:43:30.710Z,20.84
2023-05-14T08:46:01.917Z,20.82
2023-05-14T08:48:33.060Z,20.63
2023-05-14T08:51:00.519Z,21.21
2023-05-14T08:53:27.158Z,20.83
2023-05-14T08:55:53.936Z,21.49
2023-05-14T08:58:20.680Z,21.47
2023-05-14T09:00:47.599Z,21.47
2023-05-14T09:03:14.983Z,21.63
2023-05-14T09:05:41.926Z,21.87
2023-05-14T09:08:08.457Z,21.95
2023-05-14T09:10:35.825Z,21.76
2023-05-14T09:13:02.242Z,22.27
2023-05-14T09:15:29.559Z,22.19
2023-05-14T09:17:56.719Z,22.26
2023-05-14T09:20:24.814Z,22.12
2023-05-14T09:22:54.798Z,22.07
2023-05-14T09:25:27.419Z,22.24
2023-05-14T09:27:56.733Z,22.74
2023-05-14T09:30:26.425Z,22.58
2023-05-14T09:32:54.138Z,22.72
2023-05-14T09:35:22.513Z,22.59
2023-05-14T09:37:54.025Z,22.82
2023-05-14T09:40:22.376Z,22.84
2023-05-14T09:42:49.490Z,23.00
2023-05-14T09:45:16.637Z,22.88
2023-05-14T09:47:43.239Z,23.17
2023-05-14T09:50:09.966Z,23.28
2023-05-14T09:52:39.090Z,23.70
2023-05-14T09:55:06.339Z,23.68
2023-05-14T09:57:33.464Z,23.30
2023-05-14T09:59:59.853Z,23.76
2023-05-14T10:02:30.102Z,23.84
2023-05-14T10:05:02.373Z,23.93
2023-05-14T10:07:35.477Z,24.03
2023-05-14T10:10:03.142Z,24.17
2023-05-14T10:12:34.475Z,24.37
2023-05-14T10:15:04.701Z,24.44
2023-05-14T10:17:32.434Z,24.47
2023-05-14T10:20:00.601Z,24.63
2023-05-14T10:22:34.020Z,24.53
2023-05-14T10:25:01.909Z,24.58
2023-05-14T10:27:28.486Z,24.59
2023-05-14T10:29:55.818Z,24.74
2023-05-14T10:32:25.063Z,24.97
2023-05-14T10:34:52.582Z,24.66
2023-05-14T10:37:21.889Z,24.49
2023-05-14T10:39:51.237Z,24.59
2023-05-14T10:42:20.535Z,24.93
2023-05-14T10:45:07.252Z,25.23
2023-05-14T10:47:36.009Z,25.95
2023-05-14T10:50:04.985Z,26.08
2023-05-14T10:52:32.085Z,27.85
2023-05-14T10:55:03.210Z,29.90
2023-05-14T10:57:32.682Z,31.07
2023-05-14T11:00:02.648Z,31.19
2023-05-14T11:02:34.289Z,30.49
2023-05-14T11:05:05.835Z,29.52
2023-05-14T11:07:36.230Z,29.88
2023-05-14T11:10:05.829Z,30.07
2023-05-14T11:12:37.967Z,30.49
2023-05-14T11:15:09.250Z,30.42
2023-05-14T11:17:37.189Z,29.80
2023-05-14T11:20:05.931Z,29.95
2023-05-14T11:22:32.624Z,29.97
2023-05-14T11:24:59.061Z,29.95
2023-05-14T11:27:26.261Z,30.80
2023-05-14T11:29:52.821Z,30.71
2023-05-14T11:32:20.006Z,30.76
2023-05-14T11:34:46.933Z,31.03
2023-05-14T11:37:15.689Z,30.41
2023-05-14T11:39:55.700Z,29.59
2023-05-14T11:42:22.434Z,29.35
2023-05-14T11:44:54.270Z,30.19
2023-05-14T11:47:21.938Z,30.45
2023-05-14T11:49:49.065Z,30.62
2023-05-14T11:52:19.071Z,29.72
2023-05-14T11:54:45.897Z,29.75
2023-05-14T11:57:20.052Z,30.26
2023-05-14T11:59:47.161Z,30.36
2023-05-14T12:02:18.111Z,30.65
2023-05-14T12:04:49.263Z,30.12
2023-05-14T12:07:16.411Z,30.26
2023-05-14T12:09:50.814Z,30.00
2023-05-14T12:12:22.001Z,30.18
2023-05-14T12:14:49.753Z,29.77
2023-05-14T12:17:23.127Z,28.99
2023-05-14T12:19:51.455Z,29.47
2023-05-14T12:22:20.533Z,29.92
2023-05-14T12:24:57.987Z,29.41
2023-05-14T12:27:29.618Z,28.87
2023-05-14T12:30:20.643Z,27.97
2023-05-14T12:32:51.472Z,28.64
2023-05-14T12:35:18.478Z,28.29
2023-05-14T12:37:44.827Z,27.64
2023-05-14T12:40:11.525Z,27.60
2023-05-14T12:42:37.922Z,27.50
2023-05-14T12:45:07.696Z,27.75
2023-05-14T12:47:34.473Z,28.51
2023-05-14T12:50:01.150Z,29.05
2023-05-14T12:52:37.954Z,29.26
2023-05-14T12:55:09.356Z,29.70
2023-05-14T12:57:37.026Z,29.71
2023-05-14T13:00:07.726Z,30.27
2023-05-14T13:02:42.064Z,30.26
2023-05-14T13:05:10.221Z,30.39
2023-05-14T13:07:36.644Z,30.49
2023-05-14T13:10:05.670Z,30.33
2023-05-14T13:12:36.491Z,30.60
2023-05-14T13:15:06.220Z,30.31
2023-05-14T13:17:34.859Z,29.99
2023-05-14T13:20:03.054Z,29.89
2023-05-14T13:22:29.486Z,29.85
2023-05-14T13:24:55.869Z,29.54
2023-05-14T13:27:22.265Z,29.25
2023-05-14T13:29:48.592Z,28.78
2023-05-14T13:32:14.921Z,28.14
2023-05-14T13:34:41.354Z,27.31
2023-05-14T13:37:07.724Z,27.52
2023-05-14T13:39:34.050Z,27.21
2023-05-14T13:42:01.008Z,26.93
2023-05-14T13:44:27.642Z,27.15
2023-05-14T13:46:54.125Z,28.00
2023-05-14T13:49:21.080Z,28.35
2023-05-14T13:51:47.394Z,28.63
2023-05-14T13:54:13.792Z,28.00
2023-05-14T13:56:40.349Z,28.11
2023-05-14T13:59:06.820Z,27.43
2023-05-14T14:01:33.240Z,27.09
2023-05-14T14:03:59.721Z,27.37
2023-05-14T14:06:29.407Z,27.49
2023-05-14T14:08:55.748Z,28.26
2023-05-14T14:11:22.207Z,27.49
2023-05-14T14:13:48.748Z,28.26
2023-05-14T14:16:16.163Z,28.26
2023-05-14T14:18:43.157Z,27.94
2023-05-14T14:21:10.254Z,28.21
2023-05-14T14:23:36.594Z,28.14
2023-05-14T14:26:03.110Z,27.99
2023-05-14T14:28:29.822Z,27.80
2023-05-14T14:30:56.156Z,27.97
2023-05-14T14:33:22.480Z,28.05
2023-05-14T14:35:48.839Z,27.93
2023-05-14T14:38:15.316Z,27.83
2023-05-14T14:40:41.778Z,27.83
2023-05-14T14:43:08.153Z,27.73
2023-05-14T14:45:34.646Z,28.03
2023-05-14T14:48:34.167Z,28.20
2023-05-14T14:51:03.435Z,28.18
2023-05-14T14:53:31.017Z,28.04
2023-05-14T14:55:58.123Z,28.05
2023-05-14T14:58:24.719Z,28.07
2023-05-14T15:00:53.356Z,27.93
2023-05-14T15:03:20.639Z,27.89
2023-05-14T15:05:47.416Z,27.81
2023-05-14T15:08:14.573Z,27.67
2023-05-14T15:10:41.576Z,27.50
2023-05-14T15:13:08.574Z,27.22
2023-05-14T15:15:35.754Z,27.46
2023-05-14T15:18:03.140Z,27.43
2023-05-14T15:20:29.597Z,26.92
2023-05-14T15:22:56.121Z,27.35
2023-05-14T15:25:23.982Z,27.13
2023-05-14T15:27:52.139Z,27.26
2023-05-14T15:30:18.621Z,26.58
2023-05-14T15:32:45.775Z,27.57
2023-05-14T15:35:12.572Z,27.02
2023-05-14T15:37:42.308Z,27.36
2023-05-14T15:40:10.150Z,27.09
2023-05-14T15:42:38.375Z,27.64
2023-05-14T15:45:05.629Z,26.91
2023-05-14T15:47:32.315Z,26.64
2023-05-14T15:49:59.082Z,26.79
2023-05-14T15:52:25.863Z,27.02
2023-05-14T15:54:52.328Z,26.87
2023-05-14T15:57:19.974Z,26.62
2023-05-14T15:59:47.164Z,26.65
2023-05-14T16:02:14.597Z,26.54
2023-05-14T16:04:41.140Z,26.49
2023-05-14T16:07:12.177Z,26.49
2023-05-14T16:09:38.792Z,26.37
2023-05-14T16:12:06.435Z,27.24
2023-05-14T16:14:35.877Z,26.98
2023-05-14T16:17:02.315Z,26.95
2023-05-14T16:19:28.816Z,26.84
2023-05-14T16:21:55.276Z,26.37
2023-05-14T16:24:21.722Z,26.90
2023-05-14T16:26:48.200Z,27.10
2023-05-14T16:29:14.654Z,26.47
2023-05-14T16:31:41.155Z,26.31
2023-05-14T16:34:07.658Z,26.73
2023-05-14T16:36:34.294Z,26.74
2023-05-14T16:41:30.203Z,26.55
2023-05-14T16:43:56.563Z,26.48
2023-05-14T16:46:23.170Z,26.22
2023-05-14T16:48:50.561Z,26.04
2023-05-14T16:51:16.971Z,25.86
2023-05-14T16:53:43.382Z,25.93
2023-05-14T16:56:09.996Z,26.45
2023-05-14T16:58:36.406Z,26.33
2023-05-14T17:01:02.868Z,25.52
2023-05-14T17:03:29.266Z,26.03
2023-05-14T17:05:55.646Z,25.57
2023-05-14T17:08:22.123Z,25.52
2023-05-14T17:10:48.492Z,25.59
2023-05-14T17:13:14.835Z,25.72
2023-05-14T17:15:42.362Z,25.71
2023-05-14T17:18:08.958Z,25.51
2023-05-14T17:20:35.419Z,25.23
2023-05-14T17:23:01.866Z,25.23
2023-05-14T17:25:28.205Z,24.82
2023-05-14T17:27:54.556Z,25.21
2023-05-14T17:30:21.264Z,25.20
2023-05-14T17:32:50.344Z,24.91
2023-05-14T17:35:17.460Z,25.06
2023-05-14T17:37:44.092Z,24.94
2023-05-14T17:40:14.809Z,24.32
2023-05-14T17:42:41.241Z,24.38
2023-05-14T17:45:08.642Z,24.56
2023-05-14T17:47:35.044Z,24.26
2023-05-14T17:50:01.485Z,24.62
2023-05-14T17:52:27.933Z,24.33
2023-05-14T17:54:54.457Z,23.81
2023-05-14T17:57:21.204Z,23.70
2023-05-14T17:59:47.744Z,24.23
2023-05-14T18:02:14.126Z,23.56
2023-05-14T18:04:40.560Z,24.15
2023-05-14T18:07:07.124Z,23.68
2023-05-14T18:09:33.652Z,23.51
2023-05-14T18:12:00.180Z,23.53
2023-05-14T18:14:26.539Z,24.18
2023-05-14T18:16:54.676Z,24.21
2023-05-14T18:19:21.488Z,23.52
2023-05-14T18:21:48.125Z,24.08
2023-05-14T18:24:14.609Z,24.10
2023-05-14T18:26:41.040Z,23.97
2023-05-14T18:29:07.473Z,24.05
2023-05-14T18:31:34.019Z,23.78
2023-05-14T18:34:07.859Z,23.81
2023-05-14T18:36:34.437Z,23.44
2023-05-14T18:39:00.820Z,23.76
2023-05-14T18:41:27.346Z,23.26
2023-05-14T18:43:53.754Z,23.91
2023-05-14T18:46:20.345Z,23.61
2023-05-14T18:48:46.816Z,23.76
2023-05-14T18:51:13.324Z,23.55
2023-05-14T18:53:39.861Z,23.02
2023-05-14T18:56:06.371Z,22.41
2023-05-14T18:58:32.810Z,23.51
2023-05-14T19:01:02.337Z,22.69
2023-05-14T19:03:35.124Z,22.76
2023-05-14T19:06:01.638Z,22.72
2023-05-14T19:08:28.040Z,23.34
2023-05-14T19:10:56.824Z,23.36
2023-05-14T19:13:23.678Z,23.08
2023-05-14T19:15:50.291Z,23.10
2023-05-14T19:18:17.632Z,23.14
2023-05-14T19:20:46.165Z,23.26
2023-05-14T19:23:12.673Z,22.49
2023-05-14T19:25:39.170Z,22.26
2023-05-14T19:28:05.875Z,22.75
2023-05-14T19:30:32.299Z,22.34
2023-05-14T19:32:58.780Z,23.19
2023-05-14T19:35:25.481Z,23.29
2023-05-14T19:37:52.992Z,22.71
2023-05-14T19:40:19.423Z,22.68
2023-05-14T19:42:48.229Z,22.81
2023-05-14T19:45:21.069Z,22.28
2023-05-14T19:47:48.755Z,23.30
2023-05-14T19:50:16.800Z,22.52
2023-05-14T19:52:45.120Z,22.86
2023-05-14T19:55:11.715Z,22.61
2023-05-14T19:57:39.127Z,22.85
2023-05-14T20:00:09.493Z,22.33
2023-05-14T20:02:36.049Z,21.70
2023-05-14T20:05:02.590Z,22.24
2023-05-14T20:07:30.683Z,22.35
2023-05-14T20:09:57.168Z,22.39
2023-05-14T20:12:24.730Z,22.49
2023-05-14T20:14:51.634Z,22.10
2023-05-14T20:17:18.139Z,21.76
2023-05-14T20:19:44.655Z,22.69
2023-05-14T20:22:15.092Z,21.41
2023-05-14T20:24:41.459Z,21.51
2023-05-14T20:27:08.041Z,22.26
2023-05-14T20:29:34.568Z,22.37
2023-05-14T20:32:01.040Z,21.61
2023-05-14T20:34:27.418Z,22.02
2023-05-14T20:36:53.965Z,21.69
2023-05-14T20:39:20.605Z,21.14
2023-05-14T20:41:47.016Z,22.10
2023-05-14T20:44:13.449Z,21.67
2023-05-14T20:46:40.016Z,21.20
2023-05-14T20:49:06.497Z,20.94
2023-05-14T20:51:33.001Z,21.12
2023-05-14T20:53:59.383Z,21.23
2023-05-14T20:56:26.475Z,21.47
2023-05-14T20:58:52.850Z,21.24
2023-05-14T21:01:19.529Z,21.15
2023-05-14T21:03:47.288Z,20.96
2023-05-14T21:06:13.960Z,21.26
2023-05-14T21:08:40.485Z,20.87
2023-05-14T21:11:09.467Z,20.52
2023-05-14T21:13:38.924Z,21.13
2023-05-14T21:16:07.967Z,20.47
2023-05-14T21:18:34.364Z,21.16
2023-05-14T21:21:03.796Z,20.34
2023-05-14T21:23:30.274Z,21.17
2023-05-14T21:25:57.825Z,20.38
2023-05-14T21:28:26.490Z,20.44
2023-05-14T21:30:53.018Z,20.92
2023-05-14T21:33:19.509Z,20.96
2023-05-14T21:35:48.249Z,20.14
2023-05-14T21:38:15.203Z,20.13
2023-05-14T21:40:41.581Z,20.13
2023-05-14T21:43:08.000Z,19.81
2023-05-14T21:45:34.877Z,20.28
2023-05-14T21:48:01.510Z,20.69
2023-05-14T21:50:36.829Z,20.00
2023-05-14T21:53:03.328Z,19.56
2023-05-14T21:55:29.706Z,19.85
2023-05-14T21:57:56.181Z,20.12
2023-05-14T22:00:26.502Z,20.41
2023-05-14T22:02:53.248Z,20.40
2023-05-14T22:05:20.045Z,19.42
2023-05-14T22:07:46.664Z,19.89
2023-05-14T22:10:14.188Z,20.40
2023-05-14T22:12:44.082Z,19.35
2023-05-14T22:15:11.660Z,19.44
2023-05-14T22:17:38.804Z,20.31
2023-05-14T22:20:07.484Z,19.92
2023-05-14T22:22:34.176Z,20.20
2023-05-14T22:25:00.723Z,20.16
2023-05-14T22:27:27.181Z,19.39
2023-05-14T22:29:55.090Z,20.04
2023-05-14T22:32:21.565Z,19.34
2023-05-14T22:34:47.957Z,19.21
2023-05-14T22:37:14.366Z,19.94
2023-05-14T22:39:40.880Z,18.72
2023-05-14T22:42:07.507Z,19.07
2023-05-14T22:44:35.296Z,19.19
2023-05-14T22:47:01.820Z,19.34
2023-05-14T22:49:28.251Z,19.36
2023-05-14T22:51:54.582Z,19.59
2023-05-14T22:54:21.217Z,19.65
2023-05-14T22:56:47.683Z,19.49
2023-05-14T22:59:14.037Z,19.28
2023-05-14T23:01:40.571Z,18.54
2023-05-14T23:04:09.305Z,18.22
2023-05-14T23:06:35.885Z,19.23
2023-05-14T23:09:02.320Z,18.28
2023-05-14T23:11:28.937Z,18.68
2023-05-14T23:13:55.730Z,18.08
2023-05-14T23:16:24.407Z,19.14
2023-05-14T23:18:50.995Z,18.60
2023-05-14T23:21:20.026Z,18.84
2023-05-14T23:23:46.650Z,18.72
2023-05-14T23:26:13.207Z,18.18
2023-05-14T23:28:42.182Z,19.20
2023-05-14T23:31:08.582Z,18.64
2023-05-14T23:33:35.039Z,18.06
2023-05-14T23:36:01.538Z,18.93
2023-05-14T23:38:27.942Z,19.09
2023-05-14T23:40:56.733Z,18.11
2023-05-14T23:43:23.595Z,17.80
2023-05-14T23:45:50.003Z,18.51
2023-05-14T23:48:16.463Z,17.93
2023-05-14T23:50:43.816Z,18.02
2023-05-14T23:53:10.315Z,17.73
2023-05-14T23:55:36.726Z,18.32
2023-05-14T23:58:03.266Z,18.27
